createdAt,value
2017-08-29T00:00:10.568Z,20.29
2017-08-29T00:01:24.723Z,20.27
2017-08-29T00:02:38.718Z,20.26
2017-08-29T00:03:52.234Z,20.19
2017-08-29T00:05:06.075Z,20.24
2017-08-29T00:06:19.626Z,20.19
2017-08-29T00:07:33.460Z,20.19
2017-08-29T00:08:47.087Z,20.18
2017-08-29T00:10:00.570Z,20.18
2017-08-29T00:11:14.077Z,20.1
2017-08-29T00:12:27.601Z,20.04
2017-08-29T00:13:41.424Z,20.03
2017-08-29T00:14:54.939Z,20.03
2017-08-29T00:16:08.461Z,20.11
2017-08-29T00:17:22.324Z,20.04
2017-08-29T00:18:48.593Z,20.08
2017-08-29T00:20:02.108Z,20.11
2017-08-29T00:21:15.726Z,20.08
2017-08-29T00:22:29.233Z,20
2017-08-29T00:23:43.185Z,19.99
2017-08-29T00:24:57.204Z,19.99
2017-08-29T00:26:11.090Z,19.96
2017-08-29T00:27:24.920Z,19.93
2017-08-29T00:28:38.856Z,19.94
2017-08-29T00:29:52.781Z,19.93
2017-08-29T00:31:07.144Z,19.9
2017-08-29T00:32:20.924Z,19.9
2017-08-29T00:33:34.797Z,19.92
2017-08-29T00:34:48.622Z,20
2017-08-29T00:36:02.502Z,19.94
2017-08-29T00:37:17.041Z,19.92
2017-08-29T00:38:31.239Z,19.94
2017-08-29T00:39:45.222Z,19.99
2017-08-29T00:40:58.712Z,19.85
2017-08-29T00:42:12.236Z,19.94
2017-08-29T00:43:26.068Z,19.93
2017-08-29T00:44:40.019Z,20
2017-08-29T00:45:53.854Z,19.89
2017-08-29T00:47:07.395Z,19.94
2017-08-29T00:48:20.911Z,19.82
2017-08-29T00:49:35.112Z,19.85
2017-08-29T00:50:48.917Z,19.89
2017-08-29T00:52:02.438Z,19.87
2017-08-29T00:53:15.938Z,19.94
2017-08-29T00:54:29.553Z,19.92
2017-08-29T00:55:43.085Z,19.9
2017-08-29T00:56:56.907Z,19.94
2017-08-29T00:58:10.728Z,19.79
2017-08-29T00:59:24.217Z,19.92
2017-08-29T01:00:38.094Z,19.82
2017-08-29T01:01:51.592Z,19.84
2017-08-29T01:03:05.721Z,19.84
2017-08-29T01:04:19.237Z,19.84
2017-08-29T01:05:33.056Z,19.71
2017-08-29T01:06:46.702Z,19.7
2017-08-29T01:08:00.185Z,19.78
2017-08-29T01:09:13.984Z,19.77
2017-08-29T01:10:27.489Z,19.75
2017-08-29T01:11:40.999Z,19.66
2017-08-29T01:12:54.501Z,19.64
2017-08-29T01:14:07.991Z,19.64
2017-08-29T01:15:22.054Z,19.67
2017-08-29T01:16:35.579Z,19.6
2017-08-29T01:17:49.106Z,19.64
2017-08-29T01:19:02.602Z,19.64
2017-08-29T01:20:16.149Z,19.66
2017-08-29T01:21:30.036Z,19.64
2017-08-29T01:22:43.538Z,19.67
2017-08-29T01:23:57.049Z,19.67
2017-08-29T01:25:10.564Z,19.66
2017-08-29T01:26:24.120Z,19.66
2017-08-29T01:27:37.906Z,19.64
2017-08-29T01:28:51.405Z,19.63
2017-08-29T01:30:05.123Z,19.67
2017-08-29T01:31:18.681Z,19.66
2017-08-29T01:32:32.273Z,19.66
2017-08-29T01:33:46.082Z,19.64
2017-08-29T01:34:59.915Z,19.6
2017-08-29T01:36:14.291Z,19.59
2017-08-29T01:37:27.842Z,19.57
2017-08-29T01:38:41.318Z,19.63
2017-08-29T01:39:55.108Z,19.59
2017-08-29T01:41:08.602Z,19.59
2017-08-29T01:42:22.296Z,19.53
2017-08-29T01:43:35.789Z,19.48
2017-08-29T01:44:49.414Z,19.56
2017-08-29T01:46:03.203Z,19.56
2017-08-29T01:47:16.706Z,19.53
2017-08-29T01:48:30.183Z,19.59
2017-08-29T01:49:43.746Z,19.47
2017-08-29T01:50:57.590Z,19.41
2017-08-29T01:52:11.513Z,19.42
2017-08-29T01:53:25.332Z,19.38
2017-08-29T01:54:38.825Z,19.42
2017-08-29T01:55:52.341Z,19.38
2017-08-29T01:57:05.837Z,19.42
2017-08-29T01:58:19.685Z,19.41
2017-08-29T01:59:33.342Z,19.39
2017-08-29T02:00:46.921Z,19.37
2017-08-29T02:02:00.489Z,19.38
2017-08-29T02:03:13.997Z,19.3
2017-08-29T02:04:27.794Z,19.22
2017-08-29T02:05:41.450Z,19.26
2017-08-29T02:06:55.322Z,19.26
2017-08-29T02:08:08.888Z,19.22
2017-08-29T02:09:22.388Z,19.19
2017-08-29T02:10:36.197Z,19.23
2017-08-29T02:11:50.006Z,19.22
2017-08-29T02:13:03.494Z,19.16
2017-08-29T02:14:17.188Z,19.15
2017-08-29T02:15:30.679Z,19.17
2017-08-29T02:16:44.483Z,19.09
2017-08-29T02:17:57.979Z,19.11
2017-08-29T02:19:11.868Z,19.11
2017-08-29T02:20:25.777Z,19.08
2017-08-29T02:21:39.274Z,19.11
2017-08-29T02:22:53.065Z,19.11
2017-08-29T02:24:21.412Z,19
2017-08-29T02:25:35.616Z,19.01
2017-08-29T02:26:49.098Z,18.96
2017-08-29T02:28:02.592Z,18.85
2017-08-29T02:29:16.427Z,18.88
2017-08-29T02:30:29.914Z,18.83
2017-08-29T02:31:43.405Z,18.88
2017-08-29T02:32:57.047Z,18.88
2017-08-29T02:34:10.630Z,18.88
2017-08-29T02:35:24.491Z,18.89
2017-08-29T02:36:37.985Z,18.85
2017-08-29T02:37:51.507Z,18.85
2017-08-29T02:39:04.993Z,18.83
2017-08-29T02:40:18.500Z,18.85
2017-08-29T02:41:32.318Z,18.82
2017-08-29T02:42:46.173Z,18.79
2017-08-29T02:43:59.721Z,18.79
2017-08-29T02:45:13.241Z,18.76
2017-08-29T02:46:26.744Z,18.79
2017-08-29T02:47:40.565Z,18.82
2017-08-29T02:48:54.475Z,18.74
2017-08-29T02:50:08.066Z,18.79
2017-08-29T02:51:21.576Z,18.76
2017-08-29T02:52:35.055Z,18.79
2017-08-29T02:53:48.869Z,18.78
2017-08-29T02:55:02.451Z,18.78
2017-08-29T02:56:16.454Z,18.78
2017-08-29T02:57:29.943Z,18.71
2017-08-29T02:58:43.459Z,18.73
2017-08-29T02:59:57.295Z,18.86
2017-08-29T03:01:11.118Z,18.81
2017-08-29T03:02:24.910Z,18.79
2017-08-29T03:03:38.400Z,18.78
2017-08-29T03:04:52.295Z,18.88
2017-08-29T03:06:06.072Z,18.78
2017-08-29T03:07:19.569Z,18.78
2017-08-29T03:08:33.072Z,18.78
2017-08-29T03:09:46.572Z,18.78
2017-08-29T03:11:00.062Z,18.78
2017-08-29T03:12:13.877Z,18.83
2017-08-29T03:13:27.374Z,18.83
2017-08-29T03:14:40.879Z,18.74
2017-08-29T03:15:54.373Z,18.73
2017-08-29T03:17:08.071Z,18.79
2017-08-29T03:18:22.337Z,18.76
2017-08-29T03:19:37.616Z,18.74
2017-08-29T03:20:51.168Z,18.71
2017-08-29T03:22:04.764Z,18.78
2017-08-29T03:23:18.312Z,18.74
2017-08-29T03:24:33.096Z,18.74
2017-08-29T03:25:50.428Z,18.76
2017-08-29T03:27:08.812Z,18.76
2017-08-29T03:28:23.653Z,18.78
2017-08-29T03:29:37.910Z,18.74
2017-08-29T03:30:52.088Z,18.79
2017-08-29T03:32:05.606Z,18.71
2017-08-29T03:33:19.619Z,18.78
2017-08-29T03:34:33.195Z,18.73
2017-08-29T03:35:47.347Z,18.79
2017-08-29T03:37:02.010Z,18.74
2017-08-29T03:38:15.784Z,18.68
2017-08-29T03:39:29.271Z,18.74
2017-08-29T03:40:42.769Z,18.67
2017-08-29T03:41:56.482Z,18.66
2017-08-29T03:43:10.489Z,18.58
2017-08-29T03:44:26.801Z,18.64
2017-08-29T03:45:41.488Z,18.66
2017-08-29T03:46:58.883Z,18.61
2017-08-29T03:48:15.113Z,18.64
2017-08-29T03:49:30.222Z,18.66
2017-08-29T03:50:43.814Z,18.6
2017-08-29T03:51:57.484Z,18.67
2017-08-29T03:53:12.872Z,18.57
2017-08-29T03:54:28.006Z,18.63
2017-08-29T03:55:42.065Z,18.53
2017-08-29T03:56:55.780Z,18.46
2017-08-29T03:58:09.395Z,18.53
2017-08-29T03:59:23.383Z,18.57
2017-08-29T04:00:36.920Z,18.53
2017-08-29T04:01:50.827Z,18.66
2017-08-29T04:03:04.328Z,18.55
2017-08-29T04:04:17.835Z,18.63
2017-08-29T04:05:31.337Z,18.55
2017-08-29T04:06:44.882Z,18.46
2017-08-29T04:07:58.711Z,18.48
2017-08-29T04:09:12.315Z,18.45
2017-08-29T04:10:25.832Z,18.46
2017-08-29T04:11:39.391Z,18.37
2017-08-29T04:12:52.931Z,18.36
2017-08-29T04:14:07.053Z,18.36
2017-08-29T04:15:20.649Z,18.34
2017-08-29T04:16:34.158Z,18.28
2017-08-29T04:17:47.638Z,18.26
2017-08-29T04:19:01.152Z,18.36
2017-08-29T04:20:14.937Z,18.39
2017-08-29T04:21:28.437Z,18.42
2017-08-29T04:22:42.011Z,18.41
2017-08-29T04:23:55.540Z,18.33
2017-08-29T04:25:09.040Z,18.28
2017-08-29T04:26:23.182Z,18.42
2017-08-29T04:27:36.674Z,18.41
2017-08-29T04:28:50.225Z,18.36
2017-08-29T04:30:03.895Z,18.41
2017-08-29T04:31:17.403Z,18.39
2017-08-29T04:32:31.216Z,18.36
2017-08-29T04:33:44.712Z,18.27
2017-08-29T04:34:58.530Z,18.37
2017-08-29T04:36:12.349Z,18.36
2017-08-29T04:37:25.860Z,18.42
2017-08-29T04:38:39.683Z,18.37
2017-08-29T04:39:53.509Z,18.36
2017-08-29T04:41:07.361Z,18.43
2017-08-29T04:42:20.878Z,18.37
2017-08-29T04:43:34.429Z,18.42
2017-08-29T04:44:48.322Z,18.46
2017-08-29T04:46:01.830Z,18.49
2017-08-29T04:47:15.547Z,18.46
2017-08-29T04:48:29.102Z,18.57
2017-08-29T04:49:42.600Z,18.53
2017-08-29T04:50:56.407Z,18.53
2017-08-29T04:52:09.928Z,18.66
2017-08-29T04:53:23.431Z,18.61
2017-08-29T04:54:36.908Z,18.61
2017-08-29T04:55:50.431Z,18.66
2017-08-29T04:57:04.252Z,18.71
2017-08-29T04:58:17.751Z,18.66
2017-08-29T04:59:31.358Z,18.74
2017-08-29T05:00:45.222Z,18.76
2017-08-29T05:01:58.726Z,18.86
2017-08-29T05:03:12.541Z,18.91
2017-08-29T05:04:26.263Z,18.97
2017-08-29T05:05:40.279Z,19
2017-08-29T05:06:53.774Z,19.09
2017-08-29T05:08:07.283Z,19.2
2017-08-29T05:09:21.114Z,19.26
2017-08-29T05:10:34.791Z,19.19
2017-08-29T05:11:48.316Z,19.37
2017-08-29T05:13:02.011Z,19.34
2017-08-29T05:14:16.030Z,19.38
2017-08-29T05:15:30.179Z,19.44
2017-08-29T05:16:43.679Z,19.6
2017-08-29T05:17:57.493Z,19.57
2017-08-29T05:19:10.984Z,19.57
2017-08-29T05:20:24.503Z,19.44
2017-08-29T05:21:38.541Z,19.63
2017-08-29T05:22:52.369Z,19.66
2017-08-29T05:24:05.875Z,19.67
2017-08-29T05:25:19.941Z,19.63
2017-08-29T05:26:33.686Z,19.67
2017-08-29T05:27:47.500Z,19.7
2017-08-29T05:29:01.007Z,19.67
2017-08-29T05:30:14.834Z,19.75
2017-08-29T05:31:28.516Z,19.85
2017-08-29T05:32:42.612Z,19.87
2017-08-29T05:33:56.430Z,19.93
2017-08-29T05:35:09.936Z,19.93
2017-08-29T05:36:23.491Z,19.87
2017-08-29T05:37:36.995Z,19.84
2017-08-29T05:38:50.490Z,19.93
2017-08-29T05:40:04.328Z,19.81
2017-08-29T05:41:17.819Z,19.82
2017-08-29T05:42:31.332Z,19.9
2017-08-29T05:43:44.833Z,19.94
2017-08-29T05:44:58.337Z,19.92
2017-08-29T05:46:12.160Z,19.87
2017-08-29T05:47:25.816Z,20
2017-08-29T05:48:39.326Z,19.92
2017-08-29T05:49:52.820Z,19.97
2017-08-29T05:51:06.338Z,20
2017-08-29T05:52:20.128Z,20.1
2017-08-29T05:53:33.811Z,20.04
2017-08-29T05:54:47.368Z,20.11
2017-08-29T05:56:00.867Z,20.15
2017-08-29T05:57:14.435Z,20.04
2017-08-29T05:58:28.282Z,20.04
2017-08-29T05:59:42.010Z,20.02
2017-08-29T06:00:55.727Z,20.03
2017-08-29T06:02:09.646Z,19.97
2017-08-29T06:03:23.150Z,19.92
2017-08-29T06:04:37.064Z,20.11
2017-08-29T06:05:50.563Z,20.11
2017-08-29T06:07:04.084Z,20.15
2017-08-29T06:08:17.702Z,20.08
2017-08-29T06:09:31.617Z,20.12
2017-08-29T06:10:45.411Z,20.17
2017-08-29T06:11:58.919Z,20.17
2017-08-29T06:13:12.425Z,20.15
2017-08-29T06:14:25.981Z,20.18
2017-08-29T06:15:39.999Z,20.19
2017-08-29T06:16:53.793Z,20.14
2017-08-29T06:18:07.307Z,20.19
2017-08-29T06:19:20.847Z,20.14
2017-08-29T06:20:34.567Z,20.22
2017-08-29T06:21:48.078Z,20.27
2017-08-29T06:23:02.021Z,20.3
2017-08-29T06:24:15.529Z,20.33
2017-08-29T06:25:29.253Z,20.29
2017-08-29T06:26:42.744Z,20.37
2017-08-29T06:27:56.244Z,20.39
2017-08-29T06:29:10.060Z,20.44
2017-08-29T06:30:23.632Z,20.52
2017-08-29T06:31:37.478Z,20.53
2017-08-29T06:32:50.980Z,20.44
2017-08-29T06:34:04.808Z,20.56
2017-08-29T06:35:18.701Z,20.67
2017-08-29T06:36:32.229Z,20.67
2017-08-29T06:37:45.940Z,20.6
2017-08-29T06:38:59.440Z,20.59
2017-08-29T06:40:13.282Z,20.6
2017-08-29T06:41:27.092Z,20.64
2017-08-29T06:42:40.623Z,20.7
2017-08-29T06:43:54.225Z,20.78
2017-08-29T06:45:08.044Z,20.85
2017-08-29T06:46:21.549Z,20.8
2017-08-29T06:47:35.368Z,20.93
2017-08-29T06:48:48.904Z,20.86
2017-08-29T06:50:02.418Z,20.93
2017-08-29T06:51:16.052Z,20.96
2017-08-29T06:52:29.568Z,20.93
2017-08-29T06:53:43.363Z,20.86
2017-08-29T06:54:56.854Z,20.95
2017-08-29T06:56:10.429Z,20.98
2017-08-29T06:57:24.143Z,21.01
2017-08-29T06:58:37.674Z,20.95
2017-08-29T06:59:51.781Z,20.95
2017-08-29T07:01:05.578Z,20.98
2017-08-29T07:02:19.403Z,20.95
2017-08-29T07:03:32.969Z,21.05
2017-08-29T07:04:46.798Z,21.05
2017-08-29T07:06:00.586Z,21.05
2017-08-29T07:07:14.114Z,21.08
2017-08-29T07:08:27.669Z,21.14
2017-08-29T07:09:41.210Z,21.2
2017-08-29T07:10:54.722Z,21.2
2017-08-29T07:12:08.537Z,21.22
2017-08-29T07:13:22.320Z,21.19
2017-08-29T07:14:35.821Z,21.23
2017-08-29T07:15:49.322Z,21.15
2017-08-29T07:17:02.828Z,21.15
2017-08-29T07:18:16.645Z,21.25
2017-08-29T07:19:31.098Z,21.26
2017-08-29T07:20:44.681Z,21.33
2017-08-29T07:21:58.532Z,21.33
2017-08-29T07:23:12.065Z,21.35
2017-08-29T07:24:26.191Z,21.4
2017-08-29T07:25:39.702Z,21.4
2017-08-29T07:26:53.236Z,21.44
2017-08-29T07:28:07.079Z,21.44
2017-08-29T07:29:20.612Z,21.58
2017-08-29T07:30:34.442Z,21.53
2017-08-29T07:31:48.294Z,21.54
2017-08-29T07:33:01.802Z,21.6
2017-08-29T07:34:15.663Z,21.53
2017-08-29T07:35:29.516Z,21.62
2017-08-29T07:36:43.324Z,21.74
2017-08-29T07:37:56.831Z,21.68
2017-08-29T07:39:10.549Z,21.77
2017-08-29T07:40:38.946Z,21.75
2017-08-29T07:41:52.451Z,21.78
2017-08-29T07:43:06.258Z,21.88
2017-08-29T07:44:20.112Z,21.96
2017-08-29T07:45:34.179Z,21.94
2017-08-29T07:46:47.776Z,21.96
2017-08-29T07:48:01.320Z,22
2017-08-29T07:49:15.464Z,21.99
2017-08-29T07:50:28.996Z,21.97
2017-08-29T07:51:42.564Z,21.97
2017-08-29T07:52:56.076Z,22.1
2017-08-29T07:54:09.812Z,22.15
2017-08-29T07:55:23.625Z,22.33
2017-08-29T07:56:37.161Z,22.26
2017-08-29T07:57:50.715Z,22.34
2017-08-29T07:59:04.615Z,22.41
2017-08-29T08:00:18.198Z,22.44
2017-08-29T08:01:32.184Z,22.56
2017-08-29T08:02:45.892Z,22.52
2017-08-29T08:03:59.714Z,22.51
2017-08-29T08:05:13.572Z,22.47
2017-08-29T08:06:27.484Z,22.41
2017-08-29T08:07:41.325Z,22.44
2017-08-29T08:08:55.244Z,22.51
2017-08-29T08:10:08.760Z,22.62
2017-08-29T08:11:22.251Z,22.62
2017-08-29T08:12:35.758Z,22.73
2017-08-29T08:13:49.925Z,22.81
2017-08-29T08:15:03.506Z,22.77
2017-08-29T08:16:17.571Z,22.8
2017-08-29T08:17:31.136Z,22.71
2017-08-29T08:18:44.674Z,22.67
2017-08-29T08:19:58.471Z,22.83
2017-08-29T08:21:12.287Z,22.73
2017-08-29T08:22:25.868Z,22.73
2017-08-29T08:23:39.378Z,22.73
2017-08-29T08:24:52.917Z,22.74
2017-08-29T08:26:06.725Z,22.63
2017-08-29T08:27:20.311Z,22.74
2017-08-29T08:28:34.170Z,22.76
2017-08-29T08:34:00.997Z,22.98
2017-08-29T08:35:14.631Z,22.99
2017-08-29T08:36:28.311Z,22.99
2017-08-29T08:37:42.373Z,22.99
2017-08-29T08:38:56.319Z,23.04
2017-08-29T08:40:10.889Z,23.04
2017-08-29T08:41:24.811Z,23.06
2017-08-29T08:42:38.504Z,23.1
2017-08-29T08:43:52.488Z,23.11
2017-08-29T08:45:06.064Z,23.2
2017-08-29T08:46:20.330Z,23.25
2017-08-29T08:47:34.492Z,23.29
2017-08-29T08:48:48.775Z,23.25
2017-08-29T08:50:02.383Z,23.29
2017-08-29T08:51:16.037Z,23.34
2017-08-29T08:52:30.452Z,23.29
2017-08-29T08:53:44.141Z,23.39
2017-08-29T08:54:57.753Z,23.34
2017-08-29T08:56:11.417Z,23.36
2017-08-29T08:57:25.053Z,23.4
2017-08-29T08:58:39.049Z,23.47
2017-08-29T08:59:53.292Z,23.56
2017-08-29T09:01:06.946Z,23.67
2017-08-29T09:02:20.925Z,23.71
2017-08-29T09:03:34.627Z,23.76
2017-08-29T09:04:48.523Z,23.79
2017-08-29T09:06:02.113Z,23.85
2017-08-29T09:07:15.824Z,23.86
2017-08-29T09:08:29.651Z,23.94
2017-08-29T09:09:43.219Z,23.89
2017-08-29T09:10:57.096Z,23.94
2017-08-29T09:12:11.186Z,23.99
2017-08-29T09:13:25.194Z,23.89
2017-08-29T09:14:38.831Z,24.01
2017-08-29T09:15:52.432Z,24.04
2017-08-29T09:17:06.317Z,24.11
2017-08-29T09:18:19.912Z,24.06
2017-08-29T09:19:33.547Z,24.14
2017-08-29T09:20:47.272Z,24.11
2017-08-29T09:22:01.181Z,24.11
2017-08-29T09:23:15.075Z,24.21
2017-08-29T09:24:28.761Z,24.25
2017-08-29T09:25:42.735Z,24.19
2017-08-29T09:26:56.959Z,24.32
2017-08-29T09:28:10.575Z,24.38
2017-08-29T09:29:24.918Z,24.48
2017-08-29T09:30:38.543Z,24.47
2017-08-29T09:31:52.196Z,24.58
2017-08-29T09:33:06.203Z,24.53
2017-08-29T09:34:19.870Z,24.66
2017-08-29T09:35:34.468Z,24.65
2017-08-29T09:36:48.084Z,24.59
2017-08-29T09:38:01.805Z,24.5
2017-08-29T09:39:15.444Z,24.69
2017-08-29T09:40:29.108Z,24.66
2017-08-29T09:41:43.672Z,24.71
2017-08-29T09:42:57.330Z,24.79
2017-08-29T09:44:11.027Z,24.84
2017-08-29T09:45:24.630Z,24.85
2017-08-29T09:46:38.214Z,24.92
2017-08-29T09:47:52.278Z,24.94
2017-08-29T09:49:05.861Z,24.93
2017-08-29T09:50:19.642Z,24.96
2017-08-29T09:51:33.226Z,25.04
2017-08-29T09:52:46.819Z,24.92
2017-08-29T09:54:00.767Z,24.99
2017-08-29T09:55:14.526Z,24.99
2017-08-29T09:56:28.184Z,25.12
2017-08-29T09:57:41.763Z,25.21
2017-08-29T09:58:55.385Z,25.12
2017-08-29T10:00:09.748Z,25.3
2017-08-29T10:01:23.710Z,25.29
2017-08-29T10:02:37.837Z,25.3
2017-08-29T10:03:52.063Z,25.25
2017-08-29T10:05:06.089Z,25.34
2017-08-29T10:06:20.029Z,25.39
2017-08-29T10:07:33.857Z,25.37
2017-08-29T10:08:47.813Z,25.48
2017-08-29T10:10:01.503Z,25.4
2017-08-29T10:11:15.141Z,25.43
2017-08-29T10:12:29.927Z,25.4
2017-08-29T10:13:43.537Z,25.52
2017-08-29T10:14:57.238Z,25.4
2017-08-29T10:16:10.870Z,25.56
2017-08-29T10:17:24.517Z,25.52
2017-08-29T10:18:39.074Z,25.59
2017-08-29T10:19:52.794Z,25.61
2017-08-29T10:21:07.252Z,25.66
2017-08-29T10:22:20.884Z,25.77
2017-08-29T10:23:35.041Z,25.73
2017-08-29T10:24:49.528Z,25.88
2017-08-29T10:26:03.661Z,25.95
2017-08-29T10:27:17.240Z,25.83
2017-08-29T10:28:30.818Z,25.8
2017-08-29T10:29:44.569Z,25.91
2017-08-29T10:30:58.537Z,25.85
2017-08-29T10:32:12.161Z,25.92
2017-08-29T10:33:25.743Z,25.91
2017-08-29T10:34:39.679Z,25.99
2017-08-29T10:35:53.393Z,26.07
2017-08-29T10:37:07.284Z,26.07
2017-08-29T10:38:20.865Z,26.13
2017-08-29T10:39:34.487Z,26.15
2017-08-29T10:40:48.507Z,26.19
2017-08-29T10:42:02.235Z,26.23
2017-08-29T10:43:16.204Z,26.18
2017-08-29T10:44:29.776Z,26.22
2017-08-29T10:45:43.563Z,26.23
2017-08-29T10:46:57.202Z,26.41
2017-08-29T10:48:11.000Z,26.44
2017-08-29T10:49:24.952Z,26.41
2017-08-29T10:50:38.539Z,26.44
2017-08-29T10:51:52.186Z,26.51
2017-08-29T10:53:05.774Z,26.39
2017-08-29T10:54:19.601Z,26.36
2017-08-29T10:55:33.950Z,26.51
2017-08-29T10:56:47.574Z,26.6
2017-08-29T10:58:01.164Z,26.59
2017-08-29T10:59:14.954Z,26.61
2017-08-29T11:00:29.181Z,26.66
2017-08-29T11:01:43.075Z,26.73
2017-08-29T11:02:56.694Z,26.67
2017-08-29T11:04:10.336Z,26.67
2017-08-29T11:05:23.934Z,26.63
2017-08-29T11:06:38.235Z,26.64
2017-08-29T11:07:51.827Z,26.7
2017-08-29T11:09:05.619Z,26.71
2017-08-29T11:10:19.201Z,26.68
2017-08-29T11:11:32.782Z,26.82
2017-08-29T11:12:46.396Z,26.85
2017-08-29T11:14:00.272Z,26.78
2017-08-29T11:15:13.857Z,26.82
2017-08-29T11:16:27.465Z,26.82
2017-08-29T11:17:41.054Z,26.93
2017-08-29T11:18:54.621Z,26.93
2017-08-29T11:20:08.517Z,26.97
2017-08-29T11:21:22.104Z,26.98
2017-08-29T11:22:36.960Z,27.05
2017-08-29T11:23:50.564Z,27.16
2017-08-29T11:25:04.147Z,27.11
2017-08-29T11:26:18.043Z,27.19
2017-08-29T11:27:31.651Z,27.2
2017-08-29T11:28:45.254Z,27.18
2017-08-29T11:29:58.910Z,27.18
2017-08-29T11:31:12.872Z,27.18
2017-08-29T11:32:26.786Z,27.22
2017-08-29T11:33:40.491Z,27.23
2017-08-29T11:34:54.425Z,27.22
2017-08-29T11:36:08.350Z,27.18
2017-08-29T11:37:21.994Z,27.28
2017-08-29T11:38:35.962Z,27.29
2017-08-29T11:39:50.260Z,27.43
2017-08-29T11:41:03.845Z,27.4
2017-08-29T11:42:17.434Z,27.45
2017-08-29T11:43:31.133Z,27.52
2017-08-29T11:44:45.007Z,27.52
2017-08-29T11:45:58.596Z,27.55
2017-08-29T11:47:13.179Z,27.53
2017-08-29T11:48:26.786Z,27.64
2017-08-29T11:49:40.385Z,27.58
2017-08-29T11:50:54.450Z,27.61
2017-08-29T11:52:08.052Z,27.6
2017-08-29T11:53:21.640Z,27.71
2017-08-29T11:54:35.571Z,27.78
2017-08-29T11:55:49.153Z,27.75
2017-08-29T11:57:03.063Z,27.76
2017-08-29T11:58:16.793Z,27.76
2017-08-29T11:59:30.400Z,27.85
2017-08-29T12:00:44.290Z,27.85
2017-08-29T12:01:57.865Z,27.85
2017-08-29T12:03:11.756Z,27.82
2017-08-29T12:04:25.349Z,27.83
2017-08-29T12:05:49.192Z,27.83
2017-08-29T12:07:02.788Z,27.85
2017-08-29T12:08:16.745Z,27.91
2017-08-29T12:09:30.340Z,27.93
2017-08-29T12:10:43.969Z,27.86
2017-08-29T12:11:57.608Z,27.9
2017-08-29T12:13:11.362Z,28
2017-08-29T12:14:26.314Z,28.08
2017-08-29T12:15:40.628Z,28.09
2017-08-29T12:16:54.548Z,28.09
2017-08-29T12:18:08.429Z,28.16
2017-08-29T12:19:22.031Z,28.16
2017-08-29T12:20:35.946Z,28.15
2017-08-29T12:21:49.543Z,28.23
2017-08-29T12:23:03.149Z,28.25
2017-08-29T12:24:16.863Z,28.23
2017-08-29T12:25:30.470Z,28.2
2017-08-29T12:26:44.586Z,28.19
2017-08-29T12:27:58.546Z,28.22
2017-08-29T12:29:12.554Z,28.31
2017-08-29T12:30:26.525Z,28.35
2017-08-29T12:31:40.327Z,28.25
2017-08-29T12:32:54.243Z,28.35
2017-08-29T12:34:07.962Z,28.35
2017-08-29T12:35:21.575Z,28.4
2017-08-29T12:36:35.158Z,28.49
2017-08-29T12:37:48.857Z,28.52
2017-08-29T12:39:02.806Z,28.47
2017-08-29T12:40:17.076Z,28.5
2017-08-29T12:41:30.703Z,28.46
2017-08-29T12:42:44.895Z,28.5
2017-08-29T12:43:58.855Z,28.49
2017-08-29T12:45:13.114Z,28.59
2017-08-29T12:46:26.707Z,28.57
2017-08-29T12:47:40.304Z,28.53
2017-08-29T12:48:53.892Z,28.49
2017-08-29T12:54:20.436Z,28.57
2017-08-29T12:55:34.096Z,28.57
2017-08-29T12:56:47.689Z,28.49
2017-08-29T12:58:01.345Z,28.52
2017-08-29T12:59:14.932Z,28.53
2017-08-29T13:00:28.896Z,28.52
2017-08-29T13:01:42.851Z,28.53
2017-08-29T13:02:56.512Z,28.62
2017-08-29T13:04:10.477Z,28.49
2017-08-29T13:05:24.157Z,28.57
2017-08-29T13:06:38.086Z,28.55
2017-08-29T13:07:52.059Z,28.64
2017-08-29T13:09:05.674Z,28.59
2017-08-29T13:10:19.792Z,28.62
2017-08-29T13:11:33.808Z,28.65
2017-08-29T13:12:47.901Z,28.64
2017-08-29T13:14:01.567Z,28.72
2017-08-29T13:15:15.140Z,28.74
2017-08-29T13:16:28.930Z,28.77
2017-08-29T13:17:42.902Z,28.9
2017-08-29T13:18:56.792Z,28.94
2017-08-29T13:20:10.784Z,29
2017-08-29T13:21:24.739Z,28.97
2017-08-29T13:22:38.576Z,28.97
2017-08-29T13:23:52.186Z,29.03
2017-08-29T13:25:06.075Z,29.02
2017-08-29T13:26:19.689Z,29.07
2017-08-29T13:27:33.644Z,29.09
2017-08-29T13:28:47.213Z,29.06
2017-08-29T13:30:00.833Z,29.07
2017-08-29T13:31:14.791Z,29
2017-08-29T13:32:28.471Z,29.15
2017-08-29T13:33:42.468Z,29.1
2017-08-29T13:34:56.093Z,29.15
2017-08-29T13:36:10.072Z,29.22
2017-08-29T13:37:24.325Z,29.18
2017-08-29T13:38:37.946Z,29.3
2017-08-29T13:39:51.576Z,29.28
2017-08-29T13:41:05.599Z,29.12
2017-08-29T13:42:20.007Z,29.13
2017-08-29T13:43:34.598Z,29.21
2017-08-29T13:44:48.274Z,29.15
2017-08-29T13:46:01.970Z,29.22
2017-08-29T13:47:15.609Z,29.15
2017-08-29T13:48:29.660Z,29.15
2017-08-29T13:49:44.097Z,29.25
2017-08-29T13:50:57.771Z,29.32
2017-08-29T13:52:11.387Z,29.3
2017-08-29T13:53:25.059Z,29.22
2017-08-29T13:54:39.083Z,29.24
2017-08-29T13:55:53.350Z,29.28
2017-08-29T13:57:07.327Z,29.27
2017-08-29T13:58:21.528Z,29.35
2017-08-29T13:59:35.218Z,29.31
2017-08-29T14:00:48.903Z,29.28
2017-08-29T14:02:02.888Z,29.32
2017-08-29T14:03:16.662Z,29.31
2017-08-29T14:04:30.429Z,29.34
2017-08-29T14:05:44.113Z,29.4
2017-08-29T14:06:57.736Z,29.37
2017-08-29T14:08:11.748Z,29.43
2017-08-29T14:09:26.717Z,29.44
2017-08-29T14:10:41.277Z,29.5
2017-08-29T14:11:54.977Z,29.47
2017-08-29T14:13:08.689Z,29.39
2017-08-29T14:14:23.088Z,29.39
2017-08-29T14:15:36.736Z,29.34
2017-08-29T14:16:50.334Z,29.37
2017-08-29T14:18:04.516Z,29.4
2017-08-29T14:19:19.022Z,29.4
2017-08-29T14:20:33.620Z,29.46
2017-08-29T14:21:47.642Z,29.46
2017-08-29T14:23:01.247Z,29.49
2017-08-29T14:24:14.926Z,29.49
2017-08-29T14:25:29.256Z,29.46
2017-08-29T14:26:43.545Z,29.47
2017-08-29T14:27:57.155Z,29.53
2017-08-29T14:29:10.740Z,29.57
2017-08-29T14:30:24.386Z,29.55
2017-08-29T14:31:38.002Z,29.62
2017-08-29T14:32:51.925Z,29.59
2017-08-29T14:34:05.555Z,29.64
2017-08-29T14:35:19.311Z,29.59
2017-08-29T14:36:33.146Z,29.59
2017-08-29T14:37:47.494Z,29.55
2017-08-29T14:39:01.467Z,29.62
2017-08-29T14:40:15.636Z,29.68
2017-08-29T14:41:29.289Z,29.62
2017-08-29T14:42:42.928Z,29.64
2017-08-29T14:43:56.546Z,29.64
2017-08-29T14:45:10.537Z,29.52
2017-08-29T14:46:24.182Z,29.62
2017-08-29T14:47:38.604Z,29.68
2017-08-29T14:48:52.284Z,29.61
2017-08-29T14:50:05.932Z,29.69
2017-08-29T14:51:20.261Z,29.69
2017-08-29T14:52:33.887Z,29.62
2017-08-29T14:54:19.502Z,29.67
2017-08-29T14:55:33.192Z,29.65
2017-08-29T14:56:47.094Z,29.64
2017-08-29T14:58:01.093Z,29.69
2017-08-29T14:59:15.141Z,29.71
2017-08-29T15:00:29.070Z,29.67
2017-08-29T15:01:42.727Z,29.68
2017-08-29T15:02:56.727Z,29.69
2017-08-29T15:04:11.057Z,29.71
2017-08-29T15:05:24.681Z,29.55
2017-08-29T15:06:38.303Z,29.67
2017-08-29T15:07:51.989Z,29.64
2017-08-29T15:09:05.910Z,29.69
2017-08-29T15:10:19.667Z,29.67
2017-08-29T15:11:33.242Z,29.65
2017-08-29T15:12:47.200Z,29.68
2017-08-29T15:14:00.835Z,29.62
2017-08-29T15:15:14.727Z,29.62
2017-08-29T15:16:28.902Z,29.59
2017-08-29T15:17:42.687Z,29.62
2017-08-29T15:18:56.358Z,29.67
2017-08-29T15:20:09.958Z,29.69
2017-08-29T15:21:24.449Z,29.65
2017-08-29T15:22:38.035Z,29.61
2017-08-29T15:23:51.678Z,29.64
2017-08-29T15:25:05.607Z,29.71
2017-08-29T15:26:19.524Z,29.68
2017-08-29T15:27:33.466Z,29.62
2017-08-29T15:28:47.100Z,29.55
2017-08-29T15:30:00.808Z,29.5
2017-08-29T15:31:14.373Z,29.57
2017-08-29T15:32:27.962Z,29.61
2017-08-29T15:33:41.863Z,29.61
2017-08-29T15:34:55.522Z,29.61
2017-08-29T15:36:09.103Z,29.64
2017-08-29T15:37:22.717Z,29.65
2017-08-29T15:38:36.878Z,29.64
2017-08-29T15:39:50.758Z,29.59
2017-08-29T15:41:04.366Z,29.69
2017-08-29T15:42:18.143Z,29.69
2017-08-29T15:43:31.720Z,29.68
2017-08-29T15:44:45.670Z,29.61
2017-08-29T15:45:59.788Z,29.55
2017-08-29T15:47:13.381Z,29.69
2017-08-29T15:48:27.326Z,29.61
2017-08-29T15:53:32.571Z,29.61
2017-08-29T15:54:46.185Z,29.61
2017-08-29T15:55:59.855Z,29.59
2017-08-29T15:57:14.305Z,29.57
2017-08-29T15:58:28.247Z,29.62
2017-08-29T15:59:42.248Z,29.62
2017-08-29T16:00:55.957Z,29.61
2017-08-29T16:02:10.229Z,29.59
2017-08-29T16:03:26.451Z,29.59
2017-08-29T16:04:44.028Z,29.58
2017-08-29T16:06:00.077Z,29.55
2017-08-29T16:07:13.689Z,29.53